Time;durP1;ratioP1;P1;durP2;ratioP2;P2;SDS_P1;SDS_P2;PMS_P1;PMS_P2;Temp;Humidity;BMP_temperature;BMP_pressure;BME280_temperature;BME280_humidity;BME280_pressure;Samples;Min_cycle;Max_cycle;Signal;HPM_P1;HPM_P2
2022/01/11 00:00:31;;;;;;;70.88;21.70;;;;;;;;;;4996054;28;95065;-71
2022/01/11 00:02:58;;;;;;;110.93;22.63;;;;;;;;;;4992619;28;97428;-71
2022/01/11 00:05:31;;;;;;;89.97;21.95;;;;;;;;;;4992230;28;95265;-72
2022/01/11 00:07:59;;;;;;;102.30;22.63;;;;;;;;;;4993400;28;96855;-74
2022/01/11 00:10:35;;;;;;;106.15;22.48;;;;;;;;;;4991639;28;97185;-72
2022/01/11 00:13:01;;;;;;;114.88;23.83;;;;;;;;;;4993028;28;96351;-71
2022/01/11 00:15:28;;;;;;;138.93;23.33;;;;;;;;;;4990971;28;97423;-73
2022/01/11 00:17:57;;;;;;;109.95;22.77;;;;;;;;;;4992646;28;96866;-72
2022/01/11 00:20:26;;;;;;;138.60;24.95;;;;;;;;;;4991953;28;95300;-71
2022/01/11 00:25:28;;;;;;;156.30;28.13;;;;;;;;;;4992029;28;95321;-72
2022/01/11 00:27:56;;;;;;;122.45;26.08;;;;;;;;;;4992853;28;95295;-72
2022/01/11 00:30:23;;;;;;;159.18;25.27;;;;;;;;;;4991725;28;97385;-72
2022/01/11 00:32:53;;;;;;;133.15;26.42;;;;;;;;;;4992107;28;95383;-75
2022/01/11 00:35:27;;;;;;;95.28;23.73;;;;;;;;;;4992387;28;96983;-75
2022/01/11 00:37:55;;;;;;;170.77;27.20;;;;;;;;;;4971023;28;97187;-74
2022/01/11 00:40:22;;;;;;;127.90;25.55;;;;;;;;;;4972423;28;95410;-74
2022/01/11 00:42:48;;;;;;;83.80;23.50;;;;;;;;;;4972666;28;97309;-72
2022/01/11 00:45:14;;;;;;;104.47;24.95;;;;;;;;;;4974841;28;97330;-72
2022/01/11 00:47:41;;;;;;;130.80;26.17;;;;;;;;;;4991753;28;96839;-72
2022/01/11 00:50:08;;;;;;;111.25;26.83;;;;;;;;;;4992306;28;97249;-72
2022/01/11 00:52:34;;;;;;;118.03;26.40;;;;;;;;;;4991785;28;95175;-72
2022/01/11 00:55:01;;;;;;;96.57;24.92;;;;;;;;;;4992553;28;96926;-73
2022/01/11 00:57:27;;;;;;;105.50;25.55;;;;;;;;;;4991275;28;97311;-72
2022/01/11 00:59:53;;;;;;;106.95;26.23;;;;;;;;;;4992246;28;95111;-73
2022/01/11 01:02:20;;;;;;;133.77;26.95;;;;;;;;;;4992083;28;95749;-72
2022/01/11 01:04:46;;;;;;;173.52;27.45;;;;;;;;;;4991718;28;97251;-72
2022/01/11 01:07:13;;;;;;;124.20;26.58;;;;;;;;;;4997846;28;95749;-72
2022/01/11 01:09:58;;;;;;;113.13;27.60;;;;;;;;;;4991560;28;97357;-72
2022/01/11 01:12:25;;;;;;;189.90;29.63;;;;;;;;;;4991043;28;95751;-72
2022/01/11 01:14:51;;;;;;;159.27;27.55;;;;;;;;;;4992197;28;96804;-72
2022/01/11 01:17:17;;;;;;;119.57;25.90;;;;;;;;;;4991291;28;97315;-72
2022/01/11 01:19:44;;;;;;;114.53;27.80;;;;;;;;;;4991423;28;95362;-72
2022/01/11 01:22:10;;;;;;;97.20;26.40;;;;;;;;;;5004757;28;96832;-72
2022/01/11 01:24:36;;;;;;;97.07;26.60;;;;;;;;;;5011974;28;97191;-72
2022/01/11 01:27:03;;;;;;;140.05;27.35;;;;;;;;;;5002056;28;95332;-72
2022/01/11 01:29:29;;;;;;;94.82;25.25;;;;;;;;;;4994635;28;96047;-71
2022/01/11 01:31:56;;;;;;;134.10;27.65;;;;;;;;;;4992592;28;95271;-72
2022/01/11 01:34:23;;;;;;;114.15;26.77;;;;;;;;;;4995840;28;96779;-72
2022/01/11 01:36:49;;;;;;;162.82;28.98;;;;;;;;;;4994876;28;97220;-72
2022/01/11 01:39:16;;;;;;;131.15;28.38;;;;;;;;;;4995249;28;95653;-72
2022/01/11 01:41:43;;;;;;;113.75;26.23;;;;;;;;;;4994474;28;97018;-72
2022/01/11 01:44:10;;;;;;;121.95;29.00;;;;;;;;;;4994914;28;97275;-71
2022/01/11 01:46:36;;;;;;;131.43;27.65;;;;;;;;;;4995102;28;95486;-72
2022/01/11 01:49:03;;;;;;;133.23;27.80;;;;;;;;;;4998855;28;97380;-71
2022/01/11 01:51:30;;;;;;;127.00;28.23;;;;;;;;;;5014661;28;95309;-72
2022/01/11 01:53:56;;;;;;;121.78;27.80;;;;;;;;;;5014930;28;96464;-72
2022/01/11 01:56:23;;;;;;;107.70;26.73;;;;;;;;;;4999683;28;97333;-72
2022/01/11 01:58:50;;;;;;;87.43;26.13;;;;;;;;;;4994790;28;95397;-72
2022/01/11 02:01:16;;;;;;;97.55;26.05;;;;;;;;;;4994273;28;96821;-71
2022/01/11 02:03:44;;;;;;;105.22;26.38;;;;;;;;;;4997387;28;97603;-72
2022/01/11 02:06:12;;;;;;;94.53;25.98;;;;;;;;;;5002032;28;95360;-72
2022/01/11 02:08:39;;;;;;;82.88;23.70;;;;;;;;;;4995366;28;96758;-71
2022/01/11 02:11:06;;;;;;;84.07;23.73;;;;;;;;;;4997271;28;97803;-72
2022/01/11 02:13:32;;;;;;;82.43;23.45;;;;;;;;;;4994632;28;97175;-72
2022/01/11 02:15:59;;;;;;;84.65;23.92;;;;;;;;;;4993906;28;97313;-71
2022/01/11 02:18:26;;;;;;;95.75;25.85;;;;;;;;;;5007917;28;95230;-71
2022/01/11 02:20:56;;;;;;;82.78;24.80;;;;;;;;;;5014762;28;96877;-71
2022/01/11 02:23:23;;;;;;;80.25;23.98;;;;;;;;;;5013798;28;97712;-72
2022/01/11 02:25:49;;;;;;;80.45;24.20;;;;;;;;;;5008350;28;95353;-72
2022/01/11 02:28:17;;;;;;;71.35;22.92;;;;;;;;;;4993335;28;97004;-75
2022/01/11 02:30:44;;;;;;;75.82;21.90;;;;;;;;;;4993815;28;97297;-72
2022/01/11 02:33:22;;;;;;;71.82;21.30;;;;;;;;;;5010289;28;95256;-71
2022/01/11 02:35:49;;;;;;;64.07;21.42;;;;;;;;;;5007627;28;97345;-72
2022/01/11 02:38:15;;;;;;;72.93;22.80;;;;;;;;;;4993959;28;95287;-72
2022/01/11 02:40:42;;;;;;;66.40;20.77;;;;;;;;;;4994442;28;97094;-73
2022/01/11 02:43:09;;;;;;;67.72;21.90;;;;;;;;;;4991903;28;97317;-73
2022/01/11 02:45:35;;;;;;;76.20;23.60;;;;;;;;;;4994369;28;95250;-73
2022/01/11 02:48:02;;;;;;;73.78;23.52;;;;;;;;;;4993984;28;96860;-72
2022/01/11 02:50:29;;;;;;;79.38;23.02;;;;;;;;;;4993625;28;97393;-71
2022/01/11 02:52:55;;;;;;;83.78;24.33;;;;;;;;;;4994046;28;95198;-72
2022/01/11 02:55:21;;;;;;;73.03;23.27;;;;;;;;;;4997052;28;96838;-73
2022/01/11 02:57:48;;;;;;;79.63;23.95;;;;;;;;;;4993581;28;95359;-72
2022/01/11 03:00:16;;;;;;;80.18;24.40;;;;;;;;;;4993749;28;97022;-72
2022/01/11 03:02:43;;;;;;;76.22;23.25;;;;;;;;;;4993878;28;97344;-72
2022/01/11 03:05:10;;;;;;;70.50;22.92;;;;;;;;;;4993434;28;95112;-73
2022/01/11 03:07:37;;;;;;;76.03;22.73;;;;;;;;;;4992593;28;96484;-72
2022/01/11 03:10:16;;;;;;;73.15;22.33;;;;;;;;;;4993219;28;97843;-72
2022/01/11 03:12:43;;;;;;;77.18;24.08;;;;;;;;;;4993308;28;95417;-72
2022/01/11 03:15:11;;;;;;;71.15;21.92;;;;;;;;;;4994287;28;97516;-73
2022/01/11 03:17:38;;;;;;;69.97;23.48;;;;;;;;;;5003976;28;97179;-73
2022/01/11 03:20:05;;;;;;;73.35;22.17;;;;;;;;;;4993359;28;95746;-73
2022/01/11 03:22:31;;;;;;;64.78;21.88;;;;;;;;;;4992930;28;97353;-73
2022/01/11 03:24:58;;;;;;;72.45;23.55;;;;;;;;;;4994002;28;94961;-73
2022/01/11 03:27:24;;;;;;;74.18;23.00;;;;;;;;;;4992920;28;96777;-72
2022/01/11 03:29:51;;;;;;;75.20;22.90;;;;;;;;;;4993465;28;97261;-73
2022/01/11 03:32:19;;;;;;;78.90;24.30;;;;;;;;;;4992552;28;95422;-73
2022/01/11 03:35:02;;;;;;;64.07;22.25;;;;;;;;;;4993402;28;96764;-73
2022/01/11 03:37:28;;;;;;;69.72;21.83;;;;;;;;;;4992532;28;97251;-72
2022/01/11 03:39:55;;;;;;;76.03;23.95;;;;;;;;;;4996053;28;95404;-73
2022/01/11 03:42:21;;;;;;;74.63;22.85;;;;;;;;;;4992593;28;97357;-72
2022/01/11 03:44:49;;;;;;;75.32;23.10;;;;;;;;;;4993498;28;95259;-73
2022/01/11 03:47:16;;;;;;;86.18;23.73;;;;;;;;;;4992496;28;96328;-72
2022/01/11 03:49:42;;;;;;;81.82;23.55;;;;;;;;;;4993111;28;96133;-71
2022/01/11 03:52:09;;;;;;;82.00;24.05;;;;;;;;;;4993005;28;95483;-73
2022/01/11 03:57:21;;;;;;;75.38;23.50;;;;;;;;;;4992343;28;97796;-72
2022/01/11 03:59:47;;;;;;;79.30;23.67;;;;;;;;;;4996477;28;95414;-72
2022/01/11 04:02:14;;;;;;;78.30;23.13;;;;;;;;;;4997438;28;97414;-72
2022/01/11 04:04:40;;;;;;;73.70;23.08;;;;;;;;;;5013138;28;95213;-71
2022/01/11 04:07:07;;;;;;;80.85;24.77;;;;;;;;;;5010461;28;96789;-71
2022/01/11 04:09:33;;;;;;;80.38;23.23;;;;;;;;;;4991526;28;97367;-72
2022/01/11 04:11:59;;;;;;;80.00;23.77;;;;;;;;;;4992995;28;95221;-72
2022/01/11 04:14:26;;;;;;;81.53;23.40;;;;;;;;;;5002802;28;96787;-71
2022/01/11 04:16:53;;;;;;;76.63;22.65;;;;;;;;;;5012933;28;97578;-71
2022/01/11 04:19:22;;;;;;;83.72;24.83;;;;;;;;;;4994227;28;95417;-71
2022/01/11 04:21:49;;;;;;;79.10;23.52;;;;;;;;;;4995497;28;96579;-71
2022/01/11 04:24:15;;;;;;;97.05;26.00;;;;;;;;;;4992661;28;95126;-71
2022/01/11 04:26:45;;;;;;;90.72;26.55;;;;;;;;;;4992896;28;97215;-71
2022/01/11 04:29:12;;;;;;;78.25;25.27;;;;;;;;;;4991597;28;97226;-72
2022/01/11 04:31:40;;;;;;;90.57;24.73;;;;;;;;;;4992658;28;95397;-72
2022/01/11 04:34:07;;;;;;;75.53;23.83;;;;;;;;;;4992634;28;97131;-73
2022/01/11 04:36:33;;;;;;;79.55;24.58;;;;;;;;;;4992043;28;97485;-72
2022/01/11 04:39:00;;;;;;;86.35;23.35;;;;;;;;;;4991147;28;95396;-71
2022/01/11 04:41:27;;;;;;;82.78;25.02;;;;;;;;;;4992489;28;96802;-72
2022/01/11 04:43:53;;;;;;;83.32;23.70;;;;;;;;;;4994020;28;97309;-73
2022/01/11 04:46:20;;;;;;;76.63;23.92;;;;;;;;;;4992389;28;96800;-72
2022/01/11 04:48:46;;;;;;;92.93;24.77;;;;;;;;;;4991766;28;97297;-72
2022/01/11 04:51:13;;;;;;;83.20;24.42;;;;;;;;;;4991324;28;95205;-72
2022/01/11 04:53:39;;;;;;;83.65;25.85;;;;;;;;;;5012362;28;95772;-72
2022/01/11 04:56:05;;;;;;;82.55;24.23;;;;;;;;;;5012133;28;97346;-72
2022/01/11 04:58:31;;;;;;;76.22;22.75;;;;;;;;;;5005738;28;95372;-72
2022/01/11 05:00:58;;;;;;;85.45;24.83;;;;;;;;;;4992044;28;95618;-72
2022/01/11 05:03:25;;;;;;;80.45;24.80;;;;;;;;;;4991535;28;97444;-72
2022/01/11 05:05:51;;;;;;;88.78;24.75;;;;;;;;;;4994988;28;95428;-75
2022/01/11 05:08:17;;;;;;;82.95;24.70;;;;;;;;;;4991404;28;97269;-72
2022/01/11 05:10:44;;;;;;;84.43;24.95;;;;;;;;;;4990539;28;96382;-71
2022/01/11 05:13:11;;;;;;;89.47;24.80;;;;;;;;;;4991575;28;96806;-72
2022/01/11 05:15:38;;;;;;;91.28;24.88;;;;;;;;;;4991749;28;97674;-72
2022/01/11 05:18:07;;;;;;;89.97;24.58;;;;;;;;;;4971785;28;95252;-72
2022/01/11 05:20:34;;;;;;;78.80;23.67;;;;;;;;;;4991738;28;96877;-72
2022/01/11 05:23:00;;;;;;;85.78;24.98;;;;;;;;;;4991540;28;97407;-71
2022/01/11 05:25:27;;;;;;;78.40;23.30;;;;;;;;;;4990208;28;95446;-71
2022/01/11 05:27:54;;;;;;;79.97;25.83;;;;;;;;;;4994514;28;95212;-72
2022/01/11 05:30:21;;;;;;;88.60;24.80;;;;;;;;;;5006102;28;95345;-72
2022/01/11 05:32:48;;;;;;;90.25;25.45;;;;;;;;;;5009588;28;97132;-72
2022/01/11 05:35:16;;;;;;;84.13;24.63;;;;;;;;;;4991370;28;97303;-72
2022/01/11 05:37:42;;;;;;;79.60;25.33;;;;;;;;;;4991897;28;95362;-73
2022/01/11 05:40:10;;;;;;;87.20;24.00;;;;;;;;;;4989013;28;95592;-72
2022/01/11 05:42:43;;;;;;;91.75;25.10;;;;;;;;;;4991431;28;96675;-72
2022/01/11 05:45:11;;;;;;;90.50;25.52;;;;;;;;;;4990904;28;95331;-72
2022/01/11 05:47:38;;;;;;;81.07;23.98;;;;;;;;;;4991104;28;97201;-72
2022/01/11 05:50:06;;;;;;;85.13;25.38;;;;;;;;;;4997208;28;95379;-73
2022/01/11 05:52:34;;;;;;;81.95;23.80;;;;;;;;;;4997793;28;97243;-72
2022/01/11 05:55:01;;;;;;;79.57;25.15;;;;;;;;;;5007434;28;97304;-72
2022/01/11 05:57:28;;;;;;;82.68;25.00;;;;;;;;;;4999411;28;96510;-73
2022/01/11 05:59:55;;;;;;;82.88;24.95;;;;;;;;;;5000772;28;96946;-73
2022/01/11 06:02:21;;;;;;;86.50;25.23;;;;;;;;;;4978331;28;97063;-71
2022/01/11 06:04:48;;;;;;;85.63;24.23;;;;;;;;;;4988646;28;95123;-71
2022/01/11 06:07:14;;;;;;;88.47;25.42;;;;;;;;;;4990979;28;96852;-71
2022/01/11 06:09:40;;;;;;;85.18;24.25;;;;;;;;;;4993891;28;97262;-71
2022/01/11 06:12:07;;;;;;;81.82;24.95;;;;;;;;;;4982169;28;96718;-71
2022/01/11 06:14:33;;;;;;;83.53;24.42;;;;;;;;;;4971003;28;97847;-71
2022/01/11 06:17:00;;;;;;;80.43;25.67;;;;;;;;;;4972533;28;95280;-71
2022/01/11 06:19:27;;;;;;;85.68;24.80;;;;;;;;;;4986371;28;96595;-71
2022/01/11 06:21:54;;;;;;;82.55;25.27;;;;;;;;;;4993560;28;97385;-72
2022/01/11 06:24:20;;;;;;;82.53;25.15;;;;;;;;;;4994502;28;95279;-72
2022/01/11 06:26:47;;;;;;;84.53;25.38;;;;;;;;;;4989093;28;96821;-72
2022/01/11 06:29:13;;;;;;;88.45;25.70;;;;;;;;;;5009551;28;96300;-72
2022/01/11 06:31:40;;;;;;;87.40;25.83;;;;;;;;;;5006563;28;95466;-72
2022/01/11 06:34:06;;;;;;;85.93;27.77;;;;;;;;;;4995212;28;97876;-72
2022/01/11 06:36:33;;;;;;;81.53;24.58;;;;;;;;;;4993865;28;95385;-72
2022/01/11 06:38:59;;;;;;;88.18;26.85;;;;;;;;;;5008221;28;96848;-72
2022/01/11 06:41:26;;;;;;;83.00;27.35;;;;;;;;;;5007038;28;97259;-71
2022/01/11 06:43:54;;;;;;;86.65;25.98;;;;;;;;;;4993253;28;95747;-72
2022/01/11 06:46:23;;;;;;;88.03;26.52;;;;;;;;;;4993783;28;97306;-72
2022/01/11 06:48:51;;;;;;;85.68;26.48;;;;;;;;;;4995342;28;97488;-72
2022/01/11 06:51:18;;;;;;;81.07;26.55;;;;;;;;;;5007832;28;96605;-72
2022/01/11 06:53:44;;;;;;;83.60;27.05;;;;;;;;;;4977518;28;95759;-72
2022/01/11 06:56:11;;;;;;;83.00;26.90;;;;;;;;;;4990067;28;95663;-72
2022/01/11 06:58:38;;;;;;;81.68;25.75;;;;;;;;;;5025935;28;97195;-71
2022/01/11 07:01:05;;;;;;;84.38;25.38;;;;;;;;;;4993491;28;97882;-73
2022/01/11 07:03:31;;;;;;;86.78;27.85;;;;;;;;;;4992175;28;95344;-72
2022/01/11 07:05:58;;;;;;;91.97;26.45;;;;;;;;;;5007831;28;97335;-72
2022/01/11 07:08:27;;;;;;;85.53;27.35;;;;;;;;;;5002652;28;97460;-72
2022/01/11 07:10:54;;;;;;;80.90;27.05;;;;;;;;;;4993499;28;95992;-72
2022/01/11 07:13:21;;;;;;;90.80;27.42;;;;;;;;;;4992420;28;96810;-72
2022/01/11 07:15:47;;;;;;;77.18;25.30;;;;;;;;;;5005149;28;97398;-72
2022/01/11 07:18:14;;;;;;;87.93;28.77;;;;;;;;;;5011848;28;96787;-72
2022/01/11 07:20:43;;;;;;;77.60;25.58;;;;;;;;;;4993501;28;97367;-72
2022/01/11 07:23:10;;;;;;;80.18;25.73;;;;;;;;;;4992562;28;95285;-73
2022/01/11 07:25:37;;;;;;;80.25;26.90;;;;;;;;;;5001323;28;96873;-72
2022/01/11 07:28:04;;;;;;;78.47;25.85;;;;;;;;;;5013160;28;97873;-72
2022/01/11 07:30:31;;;;;;;76.68;25.75;;;;;;;;;;5012521;28;95177;-73
2022/01/11 07:32:57;;;;;;;75.05;25.55;;;;;;;;;;4993028;28;96940;-71
2022/01/11 07:35:23;;;;;;;69.55;23.88;;;;;;;;;;5000545;28;97342;-72
2022/01/11 07:37:51;;;;;;;72.18;23.52;;;;;;;;;;5012067;28;95768;-72
2022/01/11 07:40:17;;;;;;;73.50;24.67;;;;;;;;;;4990269;28;97335;-72
2022/01/11 07:42:43;;;;;;;68.82;24.80;;;;;;;;;;4987589;28;95488;-72
2022/01/11 07:45:10;;;;;;;75.53;25.38;;;;;;;;;;4997592;28;96826;-73
2022/01/11 07:47:36;;;;;;;69.47;24.50;;;;;;;;;;4992639;28;96244;-72
2022/01/11 07:50:03;;;;;;;66.88;24.83;;;;;;;;;;4993229;28;95306;-72
2022/01/11 16:15:23;;;;;;;21.50;10.32;;;;;;;;;;5029655;28;95528;-73
2022/01/11 16:17:50;;;;;;;22.75;9.63;;;;;;;;;;5027887;28;97246;-73
2022/01/11 16:20:16;;;;;;;23.55;11.02;;;;;;;;;;5009137;28;95232;-72
2022/01/11 16:22:42;;;;;;;21.33;10.50;;;;;;;;;;5019522;28;96834;-73
2022/01/11 16:25:11;;;;;;;22.90;11.68;;;;;;;;;;5027784;27;96102;-74
2022/01/11 16:27:37;;;;;;;24.73;11.32;;;;;;;;;;5026911;27;95669;-73
2022/01/11 16:30:21;;;;;;;26.42;13.13;;;;;;;;;;5004275;28;96708;-74
2022/01/11 16:32:48;;;;;;;23.48;11.35;;;;;;;;;;5025707;28;97259;-73
2022/01/11 16:35:14;;;;;;;25.67;13.35;;;;;;;;;;5030566;28;94999;-74
2022/01/11 16:37:41;;;;;;;26.50;14.75;;;;;;;;;;5028022;28;97326;-73
2022/01/11 16:40:08;;;;;;;25.45;12.65;;;;;;;;;;5014937;28;95452;-73
2022/01/11 16:42:38;;;;;;;25.20;12.02;;;;;;;;;;5007677;28;97109;-73
2022/01/11 16:45:17;;;;;;;24.20;12.20;;;;;;;;;;5009162;28;97533;-73
2022/01/11 16:47:44;;;;;;;22.98;10.90;;;;;;;;;;5026334;28;95562;-76
2022/01/11 16:50:11;;;;;;;29.60;16.35;;;;;;;;;;5009570;28;96727;-77
2022/01/11 16:52:38;;;;;;;24.63;13.25;;;;;;;;;;4987341;28;97358;-73
2022/01/11 16:55:04;;;;;;;26.02;12.00;;;;;;;;;;4988602;28;95165;-76
2022/01/11 16:57:31;;;;;;;20.63;12.13;;;;;;;;;;5029169;28;97126;-75
2022/01/11 16:59:58;;;;;;;24.75;12.13;;;;;;;;;;5007800;28;95291;-76
2022/01/11 17:02:24;;;;;;;28.05;14.85;;;;;;;;;;5006568;28;96945;-75
2022/01/11 17:04:50;;;;;;;28.23;16.55;;;;;;;;;;5015521;28;97245;-76
2022/01/11 17:07:17;;;;;;;30.05;15.82;;;;;;;;;;5011892;28;96440;-76
2022/01/11 17:09:44;;;;;;;27.83;13.85;;;;;;;;;;5004236;28;96758;-79
2022/01/11 17:12:11;;;;;;;26.55;13.38;;;;;;;;;;4986631;28;97286;-77
2022/01/11 17:14:38;;;;;;;29.67;14.85;;;;;;;;;;4986193;28;95300;-76
2022/01/11 17:17:04;;;;;;;30.27;16.27;;;;;;;;;;5017439;28;96769;-74
2022/01/11 17:19:31;;;;;;;28.30;14.75;;;;;;;;;;5007440;28;97336;-77
2022/01/11 17:21:58;;;;;;;26.77;14.52;;;;;;;;;;5005012;28;97060;-76
2022/01/11 17:24:45;;;;;;;36.83;12.85;;;;;;;;;;5008121;27;96555;-74
2022/01/11 17:27:11;;;;;;;23.15;12.40;;;;;;;;;;4992250;28;95358;-75
2022/01/11 17:29:38;;;;;;;21.63;12.40;;;;;;;;;;4989822;28;96723;-77
2022/01/11 17:32:04;;;;;;;27.42;11.23;;;;;;;;;;4989796;28;97791;-73
2022/01/11 17:34:32;;;;;;;25.70;10.98;;;;;;;;;;4998329;28;95349;-77
2022/01/11 17:37:01;;;;;;;26.25;11.38;;;;;;;;;;4997431;28;95734;-76
2022/01/11 17:39:28;;;;;;;19.95;10.57;;;;;;;;;;4990410;28;96635;-76
2022/01/11 17:41:54;;;;;;;23.83;10.95;;;;;;;;;;4994242;28;95320;-77
2022/01/11 17:44:21;;;;;;;22.15;10.63;;;;;;;;;;5002054;28;96061;-76
2022/01/11 17:46:47;;;;;;;25.90;11.40;;;;;;;;;;4999795;28;95228;-76
2022/01/11 17:49:13;;;;;;;26.63;11.63;;;;;;;;;;4995533;28;96626;-76
2022/01/11 17:51:39;;;;;;;22.08;10.70;;;;;;;;;;4992940;28;97373;-76
2022/01/11 17:54:06;;;;;;;23.98;10.68;;;;;;;;;;4998127;28;95197;-76
2022/01/11 17:56:32;;;;;;;21.70;11.50;;;;;;;;;;5004632;28;95776;-74
2022/01/11 17:58:58;;;;;;;22.30;12.05;;;;;;;;;;4997407;28;97392;-74
2022/01/11 18:01:25;;;;;;;22.00;11.43;;;;;;;;;;4994544;28;97219;-74
2022/01/11 18:04:11;;;;;;;30.95;14.30;;;;;;;;;;5000035;28;98774;-77
2022/01/11 18:06:38;;;;;;;30.23;15.27;;;;;;;;;;4993226;28;95846;-72
2022/01/11 18:09:04;;;;;;;22.35;12.48;;;;;;;;;;4990698;28;97019;-77
2022/01/11 18:11:30;;;;;;;23.90;13.50;;;;;;;;;;4986014;28;96921;-76
2022/01/11 18:13:58;;;;;;;23.77;12.43;;;;;;;;;;4997030;28;95300;-75
2022/01/11 18:16:26;;;;;;;25.35;11.48;;;;;;;;;;5004081;28;96887;-73
2022/01/11 18:18:53;;;;;;;19.23;10.85;;;;;;;;;;4995388;28;97347;-75
2022/01/11 18:21:19;;;;;;;17.58;10.35;;;;;;;;;;5002896;28;95329;-74
2022/01/11 18:23:46;;;;;;;21.27;10.95;;;;;;;;;;4996533;28;96788;-74
2022/01/11 18:26:13;;;;;;;22.48;10.80;;;;;;;;;;5009257;28;95124;-74
2022/01/11 18:28:40;;;;;;;19.33;10.52;;;;;;;;;;4993972;28;96817;-74
2022/01/11 18:31:06;;;;;;;22.77;12.43;;;;;;;;;;4998308;28;97608;-73
2022/01/11 18:33:32;;;;;;;26.90;13.32;;;;;;;;;;4997259;28;95472;-74
2022/01/11 18:35:59;;;;;;;28.58;12.85;;;;;;;;;;4998793;28;96841;-74
2022/01/11 18:38:25;;;;;;;37.00;15.27;;;;;;;;;;5002641;28;97446;-73
2022/01/11 18:40:51;;;;;;;28.73;14.35;;;;;;;;;;5003766;28;95347;-75
2022/01/11 18:43:18;;;;;;;28.55;15.07;;;;;;;;;;4990197;28;95762;-74
2022/01/11 18:45:44;;;;;;;32.42;14.23;;;;;;;;;;5009515;28;97388;-74
2022/01/11 18:48:11;;;;;;;35.05;15.18;;;;;;;;;;4994152;28;96864;-72
2022/01/11 18:50:37;;;;;;;25.17;13.80;;;;;;;;;;4993032;28;96583;-71
2022/01/11 18:53:04;;;;;;;35.53;15.60;;;;;;;;;;4989431;28;95332;-71
2022/01/11 18:55:30;;;;;;;32.53;15.52;;;;;;;;;;4993622;28;96998;-72
2022/01/11 18:57:56;;;;;;;27.15;13.68;;;;;;;;;;5000658;28;97260;-73
2022/01/11 19:00:23;;;;;;;27.02;13.95;;;;;;;;;;5006809;28;95319;-73
2022/01/11 19:02:49;;;;;;;29.08;13.48;;;;;;;;;;4998848;28;96959;-76
2022/01/11 19:05:17;;;;;;;27.90;13.52;;;;;;;;;;4992274;28;97601;-72
2022/01/11 19:07:45;;;;;;;28.85;14.73;;;;;;;;;;5001008;28;95705;-77
2022/01/11 19:10:12;;;;;;;26.48;14.68;;;;;;;;;;5005720;28;97570;-75
2022/01/11 19:12:39;;;;;;;29.13;14.00;;;;;;;;;;5007441;28;95340;-73
2022/01/11 19:15:07;;;;;;;23.33;13.93;;;;;;;;;;5017987;28;97216;-77
2022/01/11 19:17:33;;;;;;;30.25;14.45;;;;;;;;;;5002943;28;97653;-78
2022/01/11 19:20:02;;;;;;;29.08;13.60;;;;;;;;;;5003116;28;95348;-75
2022/01/11 19:22:28;;;;;;;25.08;13.07;;;;;;;;;;5007727;28;96792;-77
2022/01/11 19:24:57;;;;;;;25.70;14.05;;;;;;;;;;5007251;28;97253;-74
2022/01/11 19:27:24;;;;;;;26.27;13.13;;;;;;;;;;4999440;28;95842;-75
2022/01/11 19:29:53;;;;;;;22.02;12.38;;;;;;;;;;4997949;28;96776;-76
2022/01/11 19:32:20;;;;;;;24.08;12.20;;;;;;;;;;5000554;28;95830;-76
2022/01/11 19:34:49;;;;;;;25.13;12.68;;;;;;;;;;4997625;28;96943;-75
2022/01/11 19:37:16;;;;;;;25.90;14.10;;;;;;;;;;4988758;28;97390;-73
2022/01/11 19:39:45;;;;;;;33.88;16.25;;;;;;;;;;5005501;28;95393;-75
2022/01/11 19:42:12;;;;;;;32.60;15.70;;;;;;;;;;5007985;28;96790;-74
2022/01/11 19:44:38;;;;;;;25.73;13.02;;;;;;;;;;5008555;28;97155;-75
2022/01/11 19:47:05;;;;;;;23.60;12.38;;;;;;;;;;5009161;28;95295;-73
2022/01/11 19:49:32;;;;;;;24.42;11.52;;;;;;;;;;4996151;28;96798;-75
2022/01/11 19:51:58;;;;;;;26.08;12.07;;;;;;;;;;4978849;28;97594;-73
2022/01/11 19:54:25;;;;;;;25.10;12.50;;;;;;;;;;5005947;28;97949;-73
2022/01/11 19:56:51;;;;;;;23.58;12.05;;;;;;;;;;4988561;28;97312;-74
2022/01/11 19:59:18;;;;;;;26.15;13.25;;;;;;;;;;4985973;28;95381;-75
2022/01/11 20:01:44;;;;;;;28.90;13.32;;;;;;;;;;4971448;28;97154;-73
2022/01/11 20:04:13;;;;;;;23.13;13.15;;;;;;;;;;4986539;28;97411;-72
2022/01/11 20:06:39;;;;;;;23.40;13.30;;;;;;;;;;4996142;28;95806;-76
2022/01/11 20:09:05;;;;;;;34.75;16.17;;;;;;;;;;4971049;28;96862;-74
2022/01/11 20:11:34;;;;;;;31.63;15.95;;;;;;;;;;4978951;28;97346;-75
2022/01/11 20:14:02;;;;;;;30.35;14.85;;;;;;;;;;4977374;28;97177;-75
2022/01/11 20:16:29;;;;;;;28.02;15.52;;;;;;;;;;4990825;28;97398;-72
2022/01/11 20:18:56;;;;;;;31.20;14.70;;;;;;;;;;4990967;28;95185;-75
2022/01/11 20:21:25;;;;;;;25.58;14.40;;;;;;;;;;4990587;28;96844;-74
2022/01/11 20:29:27;;;;;;;55.03;23.45;;;;;;;;;;4971030;28;95710;-73
2022/01/11 20:31:59;;;;;;;41.28;20.58;;;;;;;;;;4984532;28;96227;-72
2022/01/11 20:34:38;;;;;;;39.53;21.63;;;;;;;;;;4999093;28;95467;-73
2022/01/11 20:37:07;;;;;;;33.05;17.27;;;;;;;;;;4993222;28;99743;-72
2022/01/11 20:39:35;;;;;;;26.30;13.85;;;;;;;;;;5009847;28;95472;-73
2022/01/11 20:42:03;;;;;;;27.33;14.20;;;;;;;;;;4985585;28;95601;-72
2022/01/11 20:44:30;;;;;;;27.00;14.45;;;;;;;;;;4992765;28;97336;-72
2022/01/11 20:46:57;;;;;;;26.27;13.43;;;;;;;;;;4994860;28;96092;-74
2022/01/11 20:49:24;;;;;;;26.55;13.15;;;;;;;;;;4993586;28;97026;-73
2022/01/11 20:54:28;;;;;;;26.77;12.38;;;;;;;;;;4988062;28;95173;-72
2022/01/11 20:56:55;;;;;;;27.85;12.73;;;;;;;;;;4997689;28;97188;-73
2022/01/11 20:59:21;;;;;;;39.92;13.25;;;;;;;;;;4982950;28;95307;-74
2022/01/11 21:01:47;;;;;;;26.40;13.82;;;;;;;;;;5000744;28;95826;-73
2022/01/11 21:04:14;;;;;;;31.35;13.23;;;;;;;;;;5012510;28;97224;-72
2022/01/11 21:06:40;;;;;;;27.98;13.35;;;;;;;;;;5014111;28;95538;-74
2022/01/11 21:09:07;;;;;;;29.92;13.75;;;;;;;;;;5000058;28;97169;-73
2022/01/11 21:11:33;;;;;;;26.08;13.90;;;;;;;;;;5008075;28;98511;-73
2022/01/11 21:13:59;;;;;;;28.67;14.90;;;;;;;;;;5013498;28;95176;-75
2022/01/11 21:16:38;;;;;;;28.80;14.13;;;;;;;;;;5008554;28;97062;-75
2022/01/11 21:21:52;;;;;;;28.52;15.02;;;;;;;;;;4994021;28;97163;-75
2022/01/11 21:24:18;;;;;;;30.65;14.65;;;;;;;;;;4994078;28;97020;-76
2022/01/11 21:26:45;;;;;;;31.88;16.40;;;;;;;;;;4994927;28;95280;-76
2022/01/11 21:29:11;;;;;;;28.35;15.30;;;;;;;;;;5005359;28;96944;-74
2022/01/11 21:31:38;;;;;;;32.65;15.38;;;;;;;;;;5014165;28;97458;-75
2022/01/11 21:34:04;;;;;;;31.13;16.45;;;;;;;;;;5014867;28;95999;-76
2022/01/11 21:36:31;;;;;;;30.23;15.70;;;;;;;;;;5013701;28;96682;-74
2022/01/11 21:38:57;;;;;;;30.80;16.42;;;;;;;;;;5014265;28;97046;-73
2022/01/11 21:41:24;;;;;;;32.13;15.75;;;;;;;;;;5015987;28;95320;-75
2022/01/11 21:43:50;;;;;;;30.00;17.15;;;;;;;;;;5013691;28;97632;-74
2022/01/11 21:46:17;;;;;;;30.98;17.58;;;;;;;;;;5008163;28;95331;-75
2022/01/11 21:48:43;;;;;;;36.92;20.48;;;;;;;;;;4994487;28;96786;-73
2022/01/11 21:51:10;;;;;;;31.55;17.90;;;;;;;;;;4993201;28;97247;-75
2022/01/11 21:53:40;;;;;;;30.63;17.10;;;;;;;;;;4994332;28;95479;-73
2022/01/11 21:56:07;;;;;;;27.48;15.63;;;;;;;;;;4994070;28;96852;-74
2022/01/11 21:58:33;;;;;;;34.20;17.77;;;;;;;;;;4993542;28;98235;-74
2022/01/11 22:00:59;;;;;;;30.25;15.18;;;;;;;;;;4998817;28;95361;-75
2022/01/11 22:03:26;;;;;;;28.98;16.70;;;;;;;;;;5016282;28;96773;-73
2022/01/11 22:05:52;;;;;;;31.05;17.38;;;;;;;;;;5006725;28;96453;-75
2022/01/11 22:08:19;;;;;;;35.85;16.77;;;;;;;;;;5011415;28;96866;-74
2022/01/11 22:10:45;;;;;;;35.50;16.67;;;;;;;;;;5012412;28;97401;-74
2022/01/11 22:13:25;;;;;;;34.80;17.80;;;;;;;;;;5010650;28;97812;-72
2022/01/11 22:18:21;;;;;;;33.30;16.77;;;;;;;;;;4972678;28;97595;-73
2022/01/11 22:20:47;;;;;;;38.72;17.17;;;;;;;;;;4988710;28;95333;-73
2022/01/11 22:23:13;;;;;;;36.67;17.00;;;;;;;;;;4993229;28;96919;-73
2022/01/11 22:25:41;;;;;;;35.78;17.02;;;;;;;;;;4977944;28;97782;-75
2022/01/11 22:28:07;;;;;;;40.47;18.95;;;;;;;;;;4973260;28;95947;-74
2022/01/11 22:30:34;;;;;;;38.45;18.58;;;;;;;;;;4973471;28;97450;-74
2022/01/11 22:33:00;;;;;;;35.78;16.90;;;;;;;;;;4973079;28;95299;-75
2022/01/11 22:35:27;;;;;;;38.05;18.63;;;;;;;;;;4973763;28;97115;-74
2022/01/11 22:37:53;;;;;;;41.83;18.55;;;;;;;;;;4993450;28;97407;-74
2022/01/11 22:40:20;;;;;;;43.15;18.80;;;;;;;;;;4991430;28;95325;-73
2022/01/11 22:42:47;;;;;;;39.22;18.50;;;;;;;;;;4993309;28;97195;-76
2022/01/11 22:45:13;;;;;;;45.03;19.42;;;;;;;;;;4995987;28;97377;-74
2022/01/11 22:47:39;;;;;;;43.25;19.92;;;;;;;;;;4992800;28;95865;-74
2022/01/11 22:50:07;;;;;;;45.38;19.90;;;;;;;;;;4993020;28;97316;-76
2022/01/11 22:52:38;;;;;;;49.35;19.90;;;;;;;;;;4992856;28;95433;-75
2022/01/11 22:55:05;;;;;;;44.60;20.58;;;;;;;;;;4993608;28;97664;-75
2022/01/11 22:57:31;;;;;;;42.95;19.33;;;;;;;;;;4991447;28;97371;-74